Lanesboro, Massachusetts
Current Conditions -  °F | °C
As of 11:54 AM on Friday 19 Dec 2014 (Local Time) from KPSF Reporting Station
Overcast Overcast  
Wind Chill: 14°   Ceiling: 2000
Heat Index: 27°   Visibility: 10mi
Dew Point: 19°   Wind: 17mph
Humidity: 72%   Direction: 300°WNW
Pressure: 29.96"   Gusts: 23mph
Location:  42.51°N, 73.24°W
Report Text: KPSF 191654Z AUTO 30015G20KT 10SM OVC020 M03/M07 A2996 RMK AO2 SLP157 T10281072
Loading
Personal Weather Stations






























Interactive Weather Map New forecast layout! Learn more

10-Day Weather Forecast

Advertisements
Track Severe Weather on mobile